createdAt,value
2023-01-08T00:01:31.152Z,71.83
2023-01-08T00:03:59.301Z,68.07
2023-01-08T00:06:27.469Z,72.07
2023-01-08T00:08:56.918Z,73.43
2023-01-08T00:11:25.128Z,74.37
2023-01-08T00:13:53.245Z,74.00
2023-01-08T00:16:21.984Z,73.33
2023-01-08T00:18:50.116Z,69.80
2023-01-08T00:21:18.349Z,70.37
2023-01-08T00:23:46.403Z,71.20
2023-01-08T00:26:15.912Z,71.67
2023-01-08T00:28:44.265Z,73.30
2023-01-08T00:31:14.139Z,74.63
2023-01-08T00:33:42.542Z,71.63
2023-01-08T00:36:13.036Z,68.97
2023-01-08T00:38:41.539Z,67.73
2023-01-08T00:41:09.780Z,71.50
2023-01-08T00:43:39.352Z,67.27
2023-01-08T00:46:08.344Z,68.40
2023-01-08T00:48:38.929Z,62.77
2023-01-08T00:51:08.295Z,65.17
2023-01-08T00:53:38.169Z,62.07
2023-01-08T00:56:08.644Z,62.80
2023-01-08T00:58:37.156Z,61.53
2023-01-08T01:01:13.303Z,60.93
2023-01-08T01:03:41.835Z,61.70
2023-01-08T01:06:10.394Z,63.37
2023-01-08T01:08:38.536Z,64.07
2023-01-08T01:11:09.979Z,66.17
2023-01-08T01:13:38.410Z,63.97
2023-01-08T01:16:07.120Z,61.87
2023-01-08T01:18:36.584Z,60.50
2023-01-08T01:21:11.327Z,61.73
2023-01-08T01:23:39.464Z,64.77
2023-01-08T01:26:07.561Z,62.17
2023-01-08T01:28:35.679Z,59.03
2023-01-08T01:31:04.642Z,57.10
2023-01-08T01:33:32.807Z,53.93
2023-01-08T01:36:03.639Z,53.40
2023-01-08T01:38:31.986Z,56.47
2023-01-08T01:41:00.253Z,55.47
2023-01-08T01:43:39.941Z,54.53
2023-01-08T01:46:19.627Z,53.30
2023-01-08T01:48:51.403Z,51.97
2023-01-08T01:51:21.731Z,51.53
2023-01-08T01:53:50.779Z,52.77
2023-01-08T01:56:19.261Z,52.23
2023-01-08T01:58:47.428Z,52.80
2023-01-08T02:01:15.880Z,53.20
2023-01-08T02:03:44.199Z,52.23
2023-01-08T02:06:21.328Z,52.77
2023-01-08T02:09:00.825Z,51.67
2023-01-08T02:11:38.580Z,50.87
2023-01-08T02:14:12.678Z,52.80
2023-01-08T02:16:47.743Z,52.23
2023-01-08T02:19:25.314Z,53.80
2023-01-08T02:22:04.015Z,53.10
2023-01-08T02:24:46.931Z,52.33
2023-01-08T02:27:18.846Z,53.20
2023-01-08T02:29:48.282Z,53.37
2023-01-08T02:32:16.553Z,53.87
2023-01-08T02:34:44.591Z,53.17
2023-01-08T02:37:12.760Z,51.83
2023-01-08T02:39:59.457Z,52.53
2023-01-08T02:42:38.066Z,52.53
2023-01-08T02:45:15.394Z,50.57
2023-01-08T02:47:47.518Z,52.27
2023-01-08T02:50:22.915Z,51.53
2023-01-08T02:53:11.290Z,52.30
2023-01-08T02:55:42.821Z,50.40
2023-01-08T02:58:13.129Z,51.27
2023-01-08T03:00:43.150Z,51.93
2023-01-08T03:03:15.956Z,51.40
2023-01-08T03:05:48.778Z,52.57
2023-01-08T03:08:19.145Z,51.30
2023-01-08T03:10:53.201Z,50.80
2023-01-08T03:13:27.851Z,51.13
2023-01-08T03:16:00.402Z,50.23
2023-01-08T03:18:34.258Z,51.63
2023-01-08T03:21:04.533Z,51.63
2023-01-08T03:23:34.790Z,52.00
2023-01-08T03:26:06.304Z,52.07
2023-01-08T03:28:40.196Z,52.37
2023-01-08T03:31:09.739Z,51.83
2023-01-08T03:33:39.501Z,51.30
2023-01-08T03:36:08.757Z,52.00
2023-01-08T03:38:41.858Z,51.47
2023-01-08T03:41:14.660Z,54.47
2023-01-08T03:43:44.165Z,54.03
2023-01-08T03:46:17.612Z,56.63
2023-01-08T03:48:47.077Z,54.73
2023-01-08T03:51:15.293Z,57.37
2023-01-08T03:53:43.715Z,56.57
2023-01-08T03:56:11.782Z,58.30
2023-01-08T03:58:42.919Z,55.50
2023-01-08T04:01:15.550Z,55.90
2023-01-08T04:03:43.738Z,58.73
2023-01-08T04:06:11.891Z,58.77
2023-01-08T04:08:39.993Z,57.33
2023-01-08T04:11:08.098Z,58.37
2023-01-08T04:13:36.151Z,57.37
2023-01-08T04:16:04.510Z,57.47
2023-01-08T04:18:34.084Z,56.67
2023-01-08T04:21:02.168Z,57.87
2023-01-08T04:23:30.210Z,57.00
2023-01-08T04:25:58.373Z,58.60
2023-01-08T04:28:26.487Z,57.60
2023-01-08T04:30:54.699Z,56.53
2023-01-08T04:33:22.783Z,56.73
2023-01-08T04:35:52.328Z,55.53
2023-01-08T04:38:20.430Z,56.33
2023-01-08T04:40:48.527Z,54.67
2023-01-08T04:43:16.703Z,55.87
2023-01-08T04:45:44.741Z,55.03
2023-01-08T04:48:12.795Z,55.27
2023-01-08T04:50:40.895Z,56.07
2023-01-08T04:53:10.363Z,57.27
2023-01-08T04:55:39.744Z,55.17
2023-01-08T04:58:07.999Z,52.83
2023-01-08T05:00:36.448Z,53.20
2023-01-08T05:03:04.588Z,52.67
2023-01-08T05:05:34.173Z,52.20
2023-01-08T05:08:02.433Z,53.03
2023-01-08T05:10:31.880Z,51.27
2023-01-08T05:13:00.600Z,52.53
2023-01-08T05:15:29.090Z,51.83
2023-01-08T05:18:01.254Z,51.43
2023-01-08T05:20:29.696Z,54.97
2023-01-08T05:22:58.671Z,51.87
2023-01-08T05:25:26.882Z,51.17
2023-01-08T05:27:56.328Z,52.33
2023-01-08T05:30:24.449Z,51.30
2023-01-08T05:32:52.581Z,50.87
2023-01-08T05:35:20.737Z,52.33
2023-01-08T05:37:48.799Z,52.40
2023-01-08T05:40:17.070Z,52.27
2023-01-08T05:42:45.247Z,51.90
2023-01-08T05:45:15.791Z,51.83
2023-01-08T05:47:44.027Z,52.03
2023-01-08T05:50:12.216Z,52.27
2023-01-08T05:52:40.562Z,52.50
2023-01-08T05:55:09.231Z,52.33
2023-01-08T05:57:37.402Z,54.33
2023-01-08T06:00:07.354Z,53.70
2023-01-08T06:02:41.049Z,54.47
2023-01-08T06:05:09.543Z,52.30
2023-01-08T06:07:37.614Z,52.87
2023-01-08T06:10:06.609Z,52.87
2023-01-08T06:12:34.651Z,50.87
2023-01-08T06:15:02.738Z,51.13
2023-01-08T06:17:30.844Z,50.97
2023-01-08T06:20:00.362Z,51.73
2023-01-08T06:22:28.613Z,50.57
2023-01-08T06:24:56.785Z,49.70
2023-01-08T06:27:24.890Z,51.53
2023-01-08T06:29:53.063Z,52.03
2023-01-08T06:32:21.102Z,51.73
2023-01-08T06:34:49.291Z,51.17
2023-01-08T06:37:18.871Z,54.13
2023-01-08T06:39:46.925Z,54.63
2023-01-08T06:42:15.023Z,57.37
2023-01-08T06:44:43.073Z,53.13
2023-01-08T06:47:11.169Z,53.43
2023-01-08T06:49:39.277Z,52.03
2023-01-08T06:52:07.612Z,51.63
2023-01-08T06:54:37.106Z,52.60
2023-01-08T06:57:05.224Z,50.97
2023-01-08T06:59:33.418Z,52.37
2023-01-08T07:02:01.545Z,52.10
2023-01-08T07:04:29.696Z,52.53
2023-01-08T07:06:57.831Z,51.67
2023-01-08T07:09:25.897Z,52.47
2023-01-08T07:11:55.360Z,51.93
2023-01-08T07:14:23.504Z,52.57
2023-01-08T07:16:51.601Z,51.97
2023-01-08T07:19:19.683Z,53.40
2023-01-08T07:21:47.855Z,52.07
2023-01-08T07:24:15.936Z,53.47
2023-01-08T07:26:43.981Z,52.73
2023-01-08T07:29:13.686Z,52.47
2023-01-08T07:31:41.920Z,51.67
2023-01-08T07:34:10.218Z,53.10
2023-01-08T07:36:38.302Z,51.27
2023-01-08T07:39:06.492Z,52.10
2023-01-08T07:41:34.586Z,51.10
2023-01-08T07:44:02.934Z,50.87
2023-01-08T07:46:32.496Z,50.23
2023-01-08T07:49:00.705Z,50.43
2023-01-08T07:51:29.909Z,48.77
2023-01-08T07:53:58.235Z,48.77
2023-01-08T07:56:26.453Z,48.83
2023-01-08T07:58:54.613Z,47.77
2023-01-08T08:01:22.795Z,48.23
2023-01-08T08:03:52.287Z,47.97
2023-01-08T08:06:20.353Z,48.37
2023-01-08T08:08:48.556Z,49.00
2023-01-08T08:11:16.648Z,47.93
2023-01-08T08:13:45.229Z,49.77
2023-01-08T08:16:13.688Z,47.90
2023-01-08T08:18:41.884Z,47.73
2023-01-08T08:21:11.362Z,47.80
2023-01-08T08:23:39.439Z,47.10
2023-01-08T08:26:07.942Z,47.77
2023-01-08T08:28:36.175Z,48.07
2023-01-08T08:31:04.315Z,47.70
2023-01-08T08:33:32.599Z,48.47
2023-01-08T08:36:00.737Z,48.33
2023-01-08T08:38:30.198Z,49.97
2023-01-08T08:40:58.386Z,49.40
2023-01-08T08:43:26.498Z,47.23
2023-01-08T08:45:56.738Z,46.00
2023-01-08T08:48:25.442Z,44.87
2023-01-08T08:50:53.638Z,45.00
2023-01-08T08:53:21.727Z,44.93
2023-01-08T08:55:51.141Z,44.67
2023-01-08T08:58:19.397Z,44.13
2023-01-08T09:00:47.540Z,45.07
2023-01-08T09:03:17.298Z,44.67
2023-01-08T09:05:45.463Z,44.67
2023-01-08T09:08:14.010Z,44.70
2023-01-08T09:10:43.639Z,44.80
2023-01-08T09:13:13.797Z,44.03
2023-01-08T09:15:42.046Z,43.90
2023-01-08T09:18:10.146Z,44.97
2023-01-08T09:20:38.254Z,41.87
2023-01-08T09:23:07.132Z,41.07
2023-01-08T09:25:35.313Z,41.07
2023-01-08T09:28:05.058Z,40.10
2023-01-08T09:30:34.685Z,40.33
2023-01-08T09:33:04.091Z,38.43
2023-01-08T09:35:32.960Z,37.90
2023-01-08T09:38:01.084Z,38.10
2023-01-08T09:40:35.255Z,37.57
2023-01-08T09:43:06.238Z,36.27
2023-01-08T09:45:39.068Z,35.63
2023-01-08T09:48:12.765Z,35.63
2023-01-08T09:50:41.106Z,35.33
2023-01-08T09:53:14.240Z,35.67
2023-01-08T09:55:43.809Z,34.63
2023-01-08T09:58:23.799Z,31.77
2023-01-08T10:00:54.108Z,30.70
2023-01-08T10:03:26.728Z,30.33
2023-01-08T10:05:54.998Z,30.63
2023-01-08T10:08:23.052Z,29.67
2023-01-08T10:10:51.305Z,28.60
2023-01-08T10:13:19.434Z,28.60
2023-01-08T10:15:48.161Z,29.40
2023-01-08T10:18:20.605Z,30.20
2023-01-08T10:20:48.662Z,30.63
2023-01-08T10:23:19.472Z,30.47
2023-01-08T10:25:53.301Z,33.93
2023-01-08T10:28:24.238Z,31.70
2023-01-08T10:30:53.710Z,29.93
2023-01-08T10:33:26.674Z,30.53
2023-01-08T10:35:59.702Z,31.20
2023-01-08T10:38:33.865Z,29.47
2023-01-08T10:41:04.779Z,29.77
2023-01-08T10:43:36.215Z,29.33
2023-01-08T10:46:07.992Z,28.17
2023-01-08T10:48:45.743Z,26.43
2023-01-08T10:51:16.947Z,26.67
2023-01-08T10:53:45.533Z,26.30
2023-01-08T10:56:22.313Z,24.90
2023-01-08T10:58:50.643Z,25.37
2023-01-08T11:01:23.631Z,25.13
2023-01-08T11:03:55.537Z,25.23
2023-01-08T11:06:27.646Z,25.17
2023-01-08T11:08:59.213Z,25.50
2023-01-08T11:11:34.744Z,25.27
2023-01-08T11:14:05.430Z,25.20
2023-01-08T11:16:36.755Z,24.90
2023-01-08T11:19:07.260Z,26.30
2023-01-08T11:21:37.072Z,25.80
2023-01-08T11:24:19.671Z,25.90
2023-01-08T11:26:53.015Z,25.93
2023-01-08T11:29:27.872Z,25.40
2023-01-08T11:32:05.350Z,26.63
2023-01-08T11:34:40.352Z,26.53
2023-01-08T11:37:15.236Z,26.07
2023-01-08T11:39:43.433Z,26.80
2023-01-08T11:42:28.320Z,25.97
2023-01-08T11:45:11.849Z,25.60
2023-01-08T11:48:06.388Z,24.80
2023-01-08T11:50:42.659Z,26.20
2023-01-08T11:53:21.769Z,25.60
2023-01-08T11:55:58.702Z,25.23
2023-01-08T11:58:42.356Z,24.67
2023-01-08T12:01:30.100Z,25.50
2023-01-08T12:04:17.037Z,25.33
2023-01-08T12:06:55.746Z,26.07
2023-01-08T12:09:37.167Z,23.43
2023-01-08T12:12:15.195Z,22.53
2023-01-08T12:14:55.732Z,20.63
2023-01-08T12:17:51.705Z,18.80
2023-01-08T12:20:31.928Z,15.93
2023-01-08T12:23:12.818Z,14.77
2023-01-08T12:26:06.504Z,13.00
2023-01-08T12:28:49.623Z,13.23
2023-01-08T12:31:34.279Z,12.50
2023-01-08T12:34:08.897Z,12.33
2023-01-08T12:36:41.282Z,11.68
2023-01-08T12:39:17.133Z,11.75
2023-01-08T12:41:48.150Z,11.60
2023-01-08T12:44:23.428Z,12.05
2023-01-08T12:46:54.558Z,11.77
2023-01-08T12:49:30.753Z,11.35
2023-01-08T12:52:08.449Z,12.10
2023-01-08T12:54:50.690Z,12.83
2023-01-08T12:57:26.510Z,11.40
2023-01-08T13:00:02.585Z,11.23
2023-01-08T13:02:40.279Z,11.20
2023-01-08T13:05:14.293Z,13.00
2023-01-08T13:07:46.326Z,12.17
2023-01-08T13:10:29.988Z,11.70
2023-01-08T13:12:59.069Z,12.07
2023-01-08T13:15:29.428Z,12.40
2023-01-08T13:18:02.260Z,12.37
2023-01-08T13:20:32.186Z,10.87
2023-01-08T13:23:02.711Z,12.73
2023-01-08T13:25:35.540Z,11.70
2023-01-08T13:28:19.829Z,12.57
2023-01-08T13:30:49.265Z,13.73
2023-01-08T13:33:29.868Z,16.00
2023-01-08T13:36:18.142Z,17.50
2023-01-08T13:38:46.705Z,19.17
2023-01-08T13:41:30.217Z,20.03
2023-01-08T13:44:02.739Z,19.50
2023-01-08T13:46:31.896Z,19.60
2023-01-08T13:49:03.334Z,20.30
2023-01-08T13:51:35.366Z,19.63
2023-01-08T13:54:16.899Z,19.33
2023-01-08T13:56:48.925Z,21.00
2023-01-08T13:59:29.328Z,21.07
2023-01-08T14:02:00.193Z,20.80
2023-01-08T14:04:29.168Z,22.33
2023-01-08T14:07:11.989Z,22.80
2023-01-08T14:09:40.125Z,23.50
2023-01-08T14:12:15.329Z,22.60
2023-01-08T14:14:48.858Z,23.30
2023-01-08T14:17:18.372Z,24.57
2023-01-08T14:19:47.024Z,24.00
2023-01-08T14:22:20.464Z,25.17
2023-01-08T14:24:55.487Z,24.67
2023-01-08T14:27:27.418Z,25.20
2023-01-08T14:29:56.022Z,25.30
2023-01-08T14:32:25.596Z,26.67
2023-01-08T14:34:55.496Z,26.37
2023-01-08T14:37:23.827Z,26.00
2023-01-08T14:39:54.659Z,27.27
2023-01-08T14:42:50.155Z,28.40
2023-01-08T14:45:21.517Z,29.47
2023-01-08T14:47:51.812Z,28.83
2023-01-08T14:50:24.819Z,29.43
2023-01-08T14:52:54.302Z,30.93
2023-01-08T14:55:22.875Z,31.80
2023-01-08T14:57:55.240Z,32.70
2023-01-08T15:00:26.846Z,33.67
2023-01-08T15:02:55.177Z,33.77
2023-01-08T15:05:28.941Z,35.60
2023-01-08T15:08:02.923Z,34.73
2023-01-08T15:10:36.146Z,36.50
2023-01-08T15:13:08.558Z,39.53
2023-01-08T15:15:54.761Z,42.20
2023-01-08T15:18:23.393Z,40.37
2023-01-08T15:20:52.558Z,40.50
2023-01-08T15:23:27.760Z,42.33
2023-01-08T15:25:56.820Z,41.33
2023-01-08T15:28:26.894Z,42.30
2023-01-08T15:30:55.321Z,42.00
2023-01-08T15:33:25.156Z,44.13
2023-01-08T15:35:53.311Z,48.20
2023-01-08T15:38:23.821Z,43.70
2023-01-08T15:40:53.340Z,42.73
2023-01-08T15:43:20.524Z,44.90
2023-01-08T15:45:51.314Z,45.03
2023-01-08T15:48:19.567Z,43.87
2023-01-08T15:50:47.696Z,44.70
2023-01-08T15:53:19.201Z,45.77
2023-01-08T15:55:47.502Z,47.37
2023-01-08T15:58:16.998Z,46.33
2023-01-08T16:00:47.288Z,47.17
2023-01-08T16:03:17.401Z,47.13
2023-01-08T16:05:45.606Z,48.73
2023-01-08T16:08:13.816Z,48.40
2023-01-08T16:10:43.165Z,48.73
2023-01-08T16:13:12.318Z,49.90
2023-01-08T16:15:41.025Z,48.67
2023-01-08T16:18:09.171Z,48.30
2023-01-08T16:20:39.252Z,48.50
2023-01-08T16:23:07.504Z,49.40
2023-01-08T16:25:36.189Z,49.53
2023-01-08T16:28:04.386Z,50.03
2023-01-08T16:30:32.567Z,51.17
2023-01-08T16:33:00.618Z,49.63
2023-01-08T16:35:28.741Z,49.73
2023-01-08T16:37:58.229Z,51.30
2023-01-08T16:40:26.325Z,52.53
2023-01-08T16:42:54.403Z,51.27
2023-01-08T16:45:22.496Z,52.87
2023-01-08T16:47:50.570Z,54.00
2023-01-08T16:50:18.783Z,55.47
2023-01-08T16:52:46.842Z,55.17
2023-01-08T16:55:16.264Z,54.80
2023-01-08T16:57:44.298Z,57.23
2023-01-08T17:00:13.774Z,55.07
2023-01-08T17:02:41.880Z,54.77
2023-01-08T17:05:10.679Z,58.10
2023-01-08T17:07:38.797Z,57.73
2023-01-08T17:10:08.066Z,56.87
2023-01-08T17:12:37.581Z,54.20
2023-01-08T17:15:06.504Z,56.10
2023-01-08T17:17:34.579Z,54.03
2023-01-08T17:20:02.807Z,53.97
2023-01-08T17:22:30.936Z,57.20
2023-01-08T17:24:59.009Z,56.93
2023-01-08T17:27:27.102Z,60.73
2023-01-08T17:29:56.596Z,61.00
2023-01-08T17:32:26.220Z,58.90
2023-01-08T17:34:54.705Z,112.30
2023-01-08T17:37:22.864Z,59.03
2023-01-08T17:39:50.934Z,72.57
2023-01-08T17:42:28.422Z,59.77
2023-01-08T17:45:01.369Z,57.70
2023-01-08T17:47:29.632Z,58.33
2023-01-08T17:49:58.358Z,55.00
2023-01-08T17:52:26.909Z,56.23
2023-01-08T17:54:55.044Z,55.17
2023-01-08T17:57:23.438Z,54.03
2023-01-08T17:59:51.539Z,53.97
2023-01-08T18:02:21.416Z,55.90
2023-01-08T18:04:49.644Z,66.97
2023-01-08T18:07:18.275Z,67.10
2023-01-08T18:09:46.389Z,69.70
2023-01-08T18:12:14.498Z,69.70
2023-01-08T18:14:44.137Z,66.67
2023-01-08T18:17:12.405Z,65.23
2023-01-08T18:19:42.078Z,66.10
2023-01-08T18:22:10.527Z,66.20
2023-01-08T18:24:38.614Z,69.97
2023-01-08T18:27:07.693Z,66.87
2023-01-08T18:29:35.865Z,66.30
2023-01-08T18:32:04.032Z,67.13
2023-01-08T18:34:32.196Z,66.73
2023-01-08T18:37:01.727Z,69.73
2023-01-08T18:39:31.003Z,61.60
2023-01-08T18:42:24.684Z,58.50
2023-01-08T18:44:54.818Z,58.03
2023-01-08T18:47:24.073Z,64.83
2023-01-08T18:49:53.456Z,66.40
2023-01-08T18:52:23.627Z,66.10
2023-01-08T18:54:53.250Z,66.30
2023-01-08T18:57:21.382Z,66.53
2023-01-08T18:59:50.057Z,67.03
2023-01-08T19:02:21.555Z,68.30
2023-01-08T19:04:49.937Z,71.07
2023-01-08T19:07:18.620Z,69.10
2023-01-08T19:09:48.122Z,73.37
2023-01-08T19:12:16.299Z,72.77
2023-01-08T19:14:46.337Z,70.63
2023-01-08T19:17:15.186Z,68.57
2023-01-08T19:19:43.312Z,70.60
2023-01-08T19:22:11.437Z,70.40
2023-01-08T19:24:39.589Z,69.23
2023-01-08T19:27:09.056Z,71.30
2023-01-08T19:29:37.359Z,70.63
2023-01-08T19:32:07.007Z,67.50
2023-01-08T19:34:35.187Z,71.83
2023-01-08T19:37:03.420Z,69.50
2023-01-08T19:39:31.684Z,70.63
2023-01-08T19:42:17.921Z,79.53
2023-01-08T19:44:47.474Z,77.83
2023-01-08T19:47:15.708Z,74.03
2023-01-08T19:49:47.753Z,77.60
2023-01-08T19:52:16.024Z,76.10
2023-01-08T19:54:44.316Z,75.47
2023-01-08T19:57:12.475Z,74.27
2023-01-08T19:59:40.749Z,75.60
2023-01-08T20:02:11.526Z,73.50
2023-01-08T20:04:40.933Z,78.20
2023-01-08T20:07:09.061Z,77.83
2023-01-08T20:09:38.556Z,78.63
2023-01-08T20:12:07.362Z,72.03
2023-01-08T20:14:35.841Z,71.97
2023-01-08T20:17:04.104Z,72.73
2023-01-08T20:19:34.474Z,74.57
2023-01-08T20:22:02.689Z,81.00
2023-01-08T20:24:31.005Z,76.50
2023-01-08T20:26:59.239Z,75.60
2023-01-08T20:29:27.482Z,77.80
2023-01-08T20:31:57.547Z,80.90
2023-01-08T20:34:26.699Z,82.53
2023-01-08T20:36:57.380Z,83.03
2023-01-08T20:39:25.791Z,80.80
2023-01-08T20:42:03.368Z,82.30
2023-01-08T20:44:32.456Z,85.27
2023-01-08T20:47:00.808Z,87.00
2023-01-08T20:49:29.740Z,89.47
2023-01-08T20:52:00.414Z,84.77
2023-01-08T20:54:30.027Z,88.27
2023-01-08T20:56:59.141Z,91.10
2023-01-08T20:59:28.352Z,93.60
2023-01-08T21:01:57.305Z,91.70
2023-01-08T21:04:25.977Z,92.80
2023-01-08T21:06:54.135Z,96.53
2023-01-08T21:09:23.644Z,96.37
2023-01-08T21:11:51.954Z,94.23
2023-01-08T21:14:20.248Z,99.97
2023-01-08T21:16:48.691Z,97.70
2023-01-08T21:19:16.907Z,97.10
2023-01-08T21:21:45.858Z,95.13
2023-01-08T21:24:15.376Z,101.23
2023-01-08T21:26:46.054Z,106.03
2023-01-08T21:29:14.857Z,103.03
2023-01-08T21:31:43.362Z,101.07
2023-01-08T21:34:11.889Z,104.27
2023-01-08T21:36:40.228Z,103.97
2023-01-08T21:39:08.837Z,103.73
2023-01-08T21:41:54.701Z,105.00
2023-01-08T21:44:43.815Z,104.13
2023-01-08T21:47:14.971Z,105.10
2023-01-08T21:49:43.063Z,104.50
2023-01-08T21:52:28.725Z,101.90
2023-01-08T21:54:58.229Z,102.97
2023-01-08T21:57:28.120Z,103.30
2023-01-08T21:59:58.263Z,101.37
2023-01-08T22:02:26.785Z,99.50
2023-01-08T22:04:56.514Z,100.17
2023-01-08T22:07:25.456Z,100.63
2023-01-08T22:09:53.787Z,95.43
2023-01-08T22:12:23.082Z,94.70
2023-01-08T22:14:53.548Z,93.40
2023-01-08T22:17:23.872Z,91.00
2023-01-08T22:19:52.549Z,93.77
2023-01-08T22:22:20.642Z,95.40
2023-01-08T22:24:48.745Z,88.13
2023-01-08T22:27:17.251Z,92.77
2023-01-08T22:29:45.360Z,94.13
2023-01-08T22:32:13.479Z,84.30
2023-01-08T22:34:43.055Z,83.73
2023-01-08T22:37:11.243Z,84.60
2023-01-08T22:39:39.344Z,82.83
2023-01-08T22:42:07.496Z,82.23
2023-01-08T22:44:35.587Z,79.03
2023-01-08T22:47:03.662Z,77.67
2023-01-08T22:49:31.789Z,77.50
2023-01-08T22:52:01.399Z,75.93
2023-01-08T22:54:29.596Z,74.20
2023-01-08T22:56:57.684Z,72.60
2023-01-08T22:59:25.765Z,74.87
2023-01-08T23:01:53.883Z,72.57
2023-01-08T23:04:23.302Z,73.97
2023-01-08T23:06:51.402Z,71.93
2023-01-08T23:09:20.841Z,74.60
2023-01-08T23:11:48.929Z,74.20
2023-01-08T23:14:17.103Z,73.57
2023-01-08T23:16:45.558Z,68.90
2023-01-08T23:19:14.083Z,69.73
2023-01-08T23:21:42.155Z,70.30
2023-01-08T23:24:13.406Z,67.87
2023-01-08T23:26:43.323Z,69.27
2023-01-08T23:29:11.745Z,66.63
2023-01-08T23:31:40.458Z,65.10
2023-01-08T23:34:08.845Z,64.20
2023-01-08T23:36:37.568Z,63.33
2023-01-08T23:39:06.393Z,62.53
2023-01-08T23:41:35.166Z,64.17
2023-01-08T23:44:07.344Z,62.70
2023-01-08T23:46:35.864Z,63.57
2023-01-08T23:49:04.060Z,60.97
2023-01-08T23:51:32.319Z,61.83
2023-01-08T23:54:00.736Z,60.87
2023-01-08T23:56:29.284Z,58.67
2023-01-08T23:58:59.092Z,59.27
